LIPH/TSF METAR and TAF weather

Enter ICAO airport designator
Station Type Date Time Source
LIPH METAR 2020/11/25 22:20 UTC NOAA

LIPH 252220Z AUTO 29001KT 5000 BR NCD 02/01 Q1025


Station Type Date Time Source
LIPH Decoded METAR 2020/11/25 22:20 UTC NOAA

Treviso / S. Angelo, Italy (LIPH) 45-39N 012-11E 23M
Nov 25, 2020 - 05:20 PM EST / 2020.11.25 2220 UTC
Wind: from the WNW (290 degrees) at 1 MPH (1 KT):0
Visibility: 3 mile(s):0
Weather: mist
Temperature: 35 F (2 C)
Dew Point: 33 F (1 C)
Relative Humidity: 93%
Pressure (altimeter): 30.27 in. Hg (1025 hPa)
ob: LIPH 252220Z AUTO 29001KT 5000 BR NCD 02/01 Q1025
cycle: 22

Station Type Date Time Source
LIPH TAF 2020/11/25 18:21 UTC NOAA

TAF LIPH 251700Z 2518/2618 VRB05KT CAVOK
TEMPO 2602/2607 2000 BCFG

Example: see airport list